sensor_id;sensor_type;location;lat;lon;timestamp;pressure;altitude;pressure_sealevel;temperature;humidity
6829;BME280;17930;48.592;8.868;2023-07-13T00:01:46;96784.28;;;18.38;100.00
6829;BME280;17930;48.592;8.868;2023-07-13T00:04:16;96780.03;;;18.08;100.00
6829;BME280;17930;48.592;8.868;2023-07-13T00:06:43;96771.31;;;17.79;100.00
6829;BME280;17930;48.592;8.868;2023-07-13T00:09:11;96770.63;;;17.53;100.00
6829;BME280;17930;48.592;8.868;2023-07-13T00:11:39;96773.78;;;17.30;100.00
6829;BME280;17930;48.592;8.868;2023-07-13T00:14:06;96776.09;;;17.40;100.00
6829;BME280;17930;48.592;8.868;2023-07-13T00:16:34;96772.44;;;17.69;100.00
6829;BME280;17930;48.592;8.868;2023-07-13T00:19:03;96772.72;;;17.76;100.00
6829;BME280;17930;48.592;8.868;2023-07-13T00:21:29;96773.84;;;17.58;100.00
6829;BME280;17930;48.592;8.868;2023-07-13T00:23:56;96762.16;;;17.31;100.00
6829;BME280;17930;48.592;8.868;2023-07-13T00:26:23;96757.03;;;17.26;100.00
6829;BME280;17930;48.592;8.868;2023-07-13T00:28:50;96762.56;;;17.49;100.00
6829;BME280;17930;48.592;8.868;2023-07-13T00:31:17;96762.66;;;17.70;100.00
6829;BME280;17930;48.592;8.868;2023-07-13T00:33:44;96768.50;;;17.84;100.00
6829;BME280;17930;48.592;8.868;2023-07-13T00:36:12;96760.44;;;17.80;100.00
6829;BME280;17930;48.592;8.868;2023-07-13T00:38:40;96765.03;;;17.54;100.00
6829;BME280;17930;48.592;8.868;2023-07-13T00:41:06;96770.81;;;17.31;100.00
6829;BME280;17930;48.592;8.868;2023-07-13T00:43:33;96766.03;;;17.25;100.00
6829;BME280;17930;48.592;8.868;2023-07-13T00:46:17;96775.16;;;17.19;100.00
6829;BME280;17930;48.592;8.868;2023-07-13T00:48:45;96775.34;;;17.31;100.00
6829;BME280;17930;48.592;8.868;2023-07-13T00:51:16;96768.38;;;17.26;100.00
6829;BME280;17930;48.592;8.868;2023-07-13T00:53:44;96769.13;;;17.10;100.00
6829;BME280;17930;48.592;8.868;2023-07-13T00:56:11;96770.38;;;17.29;100.00
6829;BME280;17930;48.592;8.868;2023-07-13T00:58:39;96774.81;;;17.45;100.00
6829;BME280;17930;48.592;8.868;2023-07-13T01:01:05;96768.78;;;17.37;100.00
6829;BME280;17930;48.592;8.868;2023-07-13T01:03:34;96768.94;;;17.32;100.00
6829;BME280;17930;48.592;8.868;2023-07-13T01:06:01;96769.13;;;17.27;100.00
6829;BME280;17930;48.592;8.868;2023-07-13T01:08:29;96769.75;;;17.24;100.00
6829;BME280;17930;48.592;8.868;2023-07-13T01:10:57;96768.66;;;17.33;100.00
6829;BME280;17930;48.592;8.868;2023-07-13T01:13:25;96766.03;;;17.16;100.00
6829;BME280;17930;48.592;8.868;2023-07-13T01:15:52;96775.00;;;17.07;100.00
6829;BME280;17930;48.592;8.868;2023-07-13T01:18:21;96770.50;;;16.99;100.00
6829;BME280;17930;48.592;8.868;2023-07-13T01:20:54;96775.94;;;16.86;100.00
6829;BME280;17930;48.592;8.868;2023-07-13T01:23:22;96770.19;;;17.00;100.00
6829;BME280;17930;48.592;8.868;2023-07-13T01:25:49;96776.56;;;16.99;100.00
6829;BME280;17930;48.592;8.868;2023-07-13T01:28:16;96771.00;;;17.01;100.00
6829;BME280;17930;48.592;8.868;2023-07-13T01:30:44;96774.06;;;17.11;100.00
6829;BME280;17930;48.592;8.868;2023-07-13T01:33:12;96777.19;;;17.05;100.00
6829;BME280;17930;48.592;8.868;2023-07-13T01:35:39;96766.94;;;17.29;100.00
6829;BME280;17930;48.592;8.868;2023-07-13T01:38:08;96776.25;;;17.18;100.00
6829;BME280;17930;48.592;8.868;2023-07-13T01:40:36;96777.66;;;16.98;100.00
6829;BME280;17930;48.592;8.868;2023-07-13T01:43:03;96777.19;;;16.88;100.00
6829;BME280;17930;48.592;8.868;2023-07-13T01:45:30;96779.53;;;16.81;100.00
6829;BME280;17930;48.592;8.868;2023-07-13T01:47:57;96769.75;;;16.73;100.00
6829;BME280;17930;48.592;8.868;2023-07-13T01:50:24;96777.03;;;16.85;100.00
6829;BME280;17930;48.592;8.868;2023-07-13T01:52:51;96779.81;;;16.63;100.00
6829;BME280;17930;48.592;8.868;2023-07-13T01:55:20;96780.75;;;16.67;100.00
6829;BME280;17930;48.592;8.868;2023-07-13T01:57:47;96783.19;;;16.46;100.00
6829;BME280;17930;48.592;8.868;2023-07-13T02:00:14;96783.34;;;16.42;100.00
6829;BME280;17930;48.592;8.868;2023-07-13T02:02:42;96777.59;;;16.48;100.00
6829;BME280;17930;48.592;8.868;2023-07-13T02:05:09;96787.34;;;16.31;100.00
6829;BME280;17930;48.592;8.868;2023-07-13T02:07:36;96780.22;;;16.40;100.00
6829;BME280;17930;48.592;8.868;2023-07-13T02:10:04;96785.84;;;16.63;100.00
6829;BME280;17930;48.592;8.868;2023-07-13T02:12:33;96783.34;;;16.42;100.00
6829;BME280;17930;48.592;8.868;2023-07-13T02:14:59;96786.56;;;16.30;100.00
6829;BME280;17930;48.592;8.868;2023-07-13T02:17:27;96785.25;;;16.19;100.00
6829;BME280;17930;48.592;8.868;2023-07-13T02:19:53;96790.31;;;15.99;100.00
6829;BME280;17930;48.592;8.868;2023-07-13T02:22:20;96792.88;;;15.82;100.00
6829;BME280;17930;48.592;8.868;2023-07-13T02:24:47;96794.59;;;15.87;100.00
6829;BME280;17930;48.592;8.868;2023-07-13T02:27:14;96798.44;;;15.81;100.00
6829;BME280;17930;48.592;8.868;2023-07-13T02:29:42;96796.91;;;15.88;100.00
6829;BME280;17930;48.592;8.868;2023-07-13T02:32:09;96801.50;;;15.74;100.00
6829;BME280;17930;48.592;8.868;2023-07-13T02:34:36;96807.81;;;15.73;100.00
6829;BME280;17930;48.592;8.868;2023-07-13T02:37:03;96815.66;;;15.65;100.00
6829;BME280;17930;48.592;8.868;2023-07-13T02:39:30;96797.41;;;15.60;100.00
6829;BME280;17930;48.592;8.868;2023-07-13T02:41:58;96805.19;;;15.73;100.00
6829;BME280;17930;48.592;8.868;2023-07-13T02:44:25;96804.13;;;15.44;100.00
6829;BME280;17930;48.592;8.868;2023-07-13T02:46:53;96806.63;;;15.27;100.00
6829;BME280;17930;48.592;8.868;2023-07-13T02:49:20;96806.34;;;15.29;100.00
6829;BME280;17930;48.592;8.868;2023-07-13T02:51:46;96812.13;;;15.39;100.00
6829;BME280;17930;48.592;8.868;2023-07-13T02:54:13;96809.91;;;15.54;100.00
6829;BME280;17930;48.592;8.868;2023-07-13T02:56:40;96807.81;;;15.73;100.00
6829;BME280;17930;48.592;8.868;2023-07-13T02:59:08;96809.19;;;16.01;100.00
6829;BME280;17930;48.592;8.868;2023-07-13T03:01:35;96803.34;;;16.12;100.00
6829;BME280;17930;48.592;8.868;2023-07-13T03:04:03;96809.00;;;15.97;100.00
6829;BME280;17930;48.592;8.868;2023-07-13T03:06:30;96804.13;;;15.74;100.00
6829;BME280;17930;48.592;8.868;2023-07-13T03:08:57;96799.59;;;15.66;100.00
6829;BME280;17930;48.592;8.868;2023-07-13T03:11:25;96798.91;;;15.52;100.00
6829;BME280;17930;48.592;8.868;2023-07-13T03:13:52;96794.13;;;15.54;100.00
6829;BME280;17930;48.592;8.868;2023-07-13T03:16:19;96804.72;;;15.71;100.00
6829;BME280;17930;48.592;8.868;2023-07-13T03:18:47;96805.13;;;15.87;100.00
6829;BME280;17930;48.592;8.868;2023-07-13T03:21:16;96809.22;;;15.71;100.00
6829;BME280;17930;48.592;8.868;2023-07-13T03:23:43;96815.59;;;15.78;100.00
6829;BME280;17930;48.592;8.868;2023-07-13T03:26:12;96809.22;;;15.71;100.00
6829;BME280;17930;48.592;8.868;2023-07-13T03:28:39;96813.44;;;15.80;100.00
6829;BME280;17930;48.592;8.868;2023-07-13T03:31:09;96807.28;;;15.93;100.00
6829;BME280;17930;48.592;8.868;2023-07-13T03:33:36;96815.16;;;15.85;100.00
6829;BME280;17930;48.592;8.868;2023-07-13T03:36:03;96811.03;;;15.92;100.00
6829;BME280;17930;48.592;8.868;2023-07-13T03:38:31;96816.63;;;15.69;100.00
6829;BME280;17930;48.592;8.868;2023-07-13T03:40:58;96810.09;;;15.66;100.00
6829;BME280;17930;48.592;8.868;2023-07-13T03:43:25;96819.66;;;15.54;100.00
6829;BME280;17930;48.592;8.868;2023-07-13T03:45:52;96818.03;;;15.44;100.00
6829;BME280;17930;48.592;8.868;2023-07-13T03:48:19;96820.66;;;15.44;100.00
6829;BME280;17930;48.592;8.868;2023-07-13T03:50:47;96821.63;;;15.48;100.00
6829;BME280;17930;48.592;8.868;2023-07-13T03:53:15;96828.16;;;15.59;100.00
6829;BME280;17930;48.592;8.868;2023-07-13T03:55:42;96822.69;;;15.69;100.00
6829;BME280;17930;48.592;8.868;2023-07-13T03:58:29;96830.47;;;15.83;100.00
6829;BME280;17930;48.592;8.868;2023-07-13T04:00:57;96833.50;;;15.98;100.00
6829;BME280;17930;48.592;8.868;2023-07-13T04:03:24;96836.13;;;15.98;100.00
6829;BME280;17930;48.592;8.868;2023-07-13T04:05:54;96841.38;;;15.98;100.00
6829;BME280;17930;48.592;8.868;2023-07-13T04:08:26;96840.84;;;15.79;100.00
6829;BME280;17930;48.592;8.868;2023-07-13T04:10:54;96843.72;;;15.69;100.00
6829;BME280;17930;48.592;8.868;2023-07-13T04:13:21;96848.13;;;15.60;100.00
6829;BME280;17930;48.592;8.868;2023-07-13T04:15:49;96844.69;;;15.51;100.00
6829;BME280;17930;48.592;8.868;2023-07-13T04:18:15;96849.88;;;15.43;100.00
6829;BME280;17930;48.592;8.868;2023-07-13T04:20:42;96846.13;;;15.36;100.00
6829;BME280;17930;48.592;8.868;2023-07-13T04:23:09;96844.09;;;15.33;100.00
6829;BME280;17930;48.592;8.868;2023-07-13T04:25:35;96844.25;;;15.36;100.00
6829;BME280;17930;48.592;8.868;2023-07-13T04:28:04;96844.44;;;15.39;100.00
6829;BME280;17930;48.592;8.868;2023-07-13T04:30:31;96849.91;;;15.30;100.00
6829;BME280;17930;48.592;8.868;2023-07-13T04:32:58;96844.66;;;15.30;100.00
6829;BME280;17930;48.592;8.868;2023-07-13T04:35:25;96848.28;;;15.55;100.00
6829;BME280;17930;48.592;8.868;2023-07-13T04:37:51;96842.56;;;15.62;100.00
6829;BME280;17930;48.592;8.868;2023-07-13T04:40:18;96848.19;;;15.69;100.00
6829;BME280;17930;48.592;8.868;2023-07-13T04:42:46;96850.50;;;15.70;100.00
6829;BME280;17930;48.592;8.868;2023-07-13T04:45:14;96847.47;;;15.77;100.00
6829;BME280;17930;48.592;8.868;2023-07-13T04:47:41;96853.72;;;15.89;100.00
6829;BME280;17930;48.592;8.868;2023-07-13T04:50:09;96854.66;;;15.93;100.00
6829;BME280;17930;48.592;8.868;2023-07-13T04:52:36;96852.88;;;16.02;100.00
6829;BME280;17930;48.592;8.868;2023-07-13T04:55:04;96853.47;;;15.99;100.00
6829;BME280;17930;48.592;8.868;2023-07-13T04:57:31;96855.34;;;16.07;100.00
6829;BME280;17930;48.592;8.868;2023-07-13T04:59:58;96858.53;;;16.26;100.00
6829;BME280;17930;48.592;8.868;2023-07-13T05:02:27;96863.00;;;16.55;100.00
6829;BME280;17930;48.592;8.868;2023-07-13T05:04:56;96854.25;;;16.85;100.00
6829;BME280;17930;48.592;8.868;2023-07-13T05:07:23;96863.72;;;17.11;100.00
6829;BME280;17930;48.592;8.868;2023-07-13T05:09:49;96861.25;;;17.32;100.00
6829;BME280;17930;48.592;8.868;2023-07-13T05:12:16;96858.91;;;17.47;100.00
6829;BME280;17930;48.592;8.868;2023-07-13T05:14:43;96859.72;;;17.47;100.00
6829;BME280;17930;48.592;8.868;2023-07-13T05:17:10;96865.72;;;17.65;100.00
6829;BME280;17930;48.592;8.868;2023-07-13T05:19:38;96867.00;;;17.59;100.00
6829;BME280;17930;48.592;8.868;2023-07-13T05:22:05;96869.00;;;17.53;100.00
6829;BME280;17930;48.592;8.868;2023-07-13T05:24:31;96865.13;;;17.51;100.00
6829;BME280;17930;48.592;8.868;2023-07-13T05:26:58;96872.56;;;17.66;100.00
6829;BME280;17930;48.592;8.868;2023-07-13T05:29:25;96867.75;;;17.59;100.00
6829;BME280;17930;48.592;8.868;2023-07-13T05:31:51;96876.47;;;17.51;100.00
6829;BME280;17930;48.592;8.868;2023-07-13T05:34:18;96870.25;;;17.47;100.00
6829;BME280;17930;48.592;8.868;2023-07-13T05:36:46;96888.09;;;17.50;100.00
6829;BME280;17930;48.592;8.868;2023-07-13T05:39:13;96892.44;;;17.38;100.00
6829;BME280;17930;48.592;8.868;2023-07-13T05:41:39;96894.31;;;17.63;100.00
6829;BME280;17930;48.592;8.868;2023-07-13T05:44:06;96892.84;;;17.99;100.00
6829;BME280;17930;48.592;8.868;2023-07-13T05:46:33;96898.09;;;17.99;100.00
6829;BME280;17930;48.592;8.868;2023-07-13T05:48:59;96904.16;;;18.16;100.00
6829;BME280;17930;48.592;8.868;2023-07-13T05:51:26;96905.50;;;18.39;100.00
6829;BME280;17930;48.592;8.868;2023-07-13T05:53:54;96906.50;;;18.55;100.00
6829;BME280;17930;48.592;8.868;2023-07-13T05:56:21;96906.56;;;18.75;100.00
6829;BME280;17930;48.592;8.868;2023-07-13T05:58:48;96910.72;;;18.85;100.00
6829;BME280;17930;48.592;8.868;2023-07-13T06:01:15;96924.34;;;18.95;100.00
6829;BME280;17930;48.592;8.868;2023-07-13T06:03:42;96923.81;;;19.51;100.00
6829;BME280;17930;48.592;8.868;2023-07-13T06:06:10;96911.88;;;20.17;100.00
6829;BME280;17930;48.592;8.868;2023-07-13T06:08:37;96921.78;;;20.53;100.00
6829;BME280;17930;48.592;8.868;2023-07-13T06:11:07;96916.94;;;21.02;100.00
6829;BME280;17930;48.592;8.868;2023-07-13T06:13:34;96912.34;;;21.50;100.00
6829;BME280;17930;48.592;8.868;2023-07-13T06:16:02;96909.94;;;21.72;100.00
6829;BME280;17930;48.592;8.868;2023-07-13T06:18:30;96921.91;;;21.66;100.00
6829;BME280;17930;48.592;8.868;2023-07-13T06:20:57;96918.44;;;21.27;100.00
6829;BME280;17930;48.592;8.868;2023-07-13T06:23:24;96935.06;;;21.00;100.00
6829;BME280;17930;48.592;8.868;2023-07-13T06:25:51;96924.28;;;21.44;100.00
6829;BME280;17930;48.592;8.868;2023-07-13T06:28:19;96922.75;;;21.82;100.00
6829;BME280;17930;48.592;8.868;2023-07-13T06:30:46;96926.28;;;22.29;100.00
6829;BME280;17930;48.592;8.868;2023-07-13T06:33:13;96924.50;;;22.94;100.00
6829;BME280;17930;48.592;8.868;2023-07-13T06:35:39;96922.38;;;22.11;100.00
6829;BME280;17930;48.592;8.868;2023-07-13T06:38:06;96923.75;;;22.05;100.00
6829;BME280;17930;48.592;8.868;2023-07-13T06:40:32;96924.09;;;22.19;100.00
6829;BME280;17930;48.592;8.868;2023-07-13T06:42:59;96922.97;;;22.93;100.00
6829;BME280;17930;48.592;8.868;2023-07-13T06:45:27;96923.94;;;23.35;100.00
6829;BME280;17930;48.592;8.868;2023-07-13T06:47:54;96911.44;;;23.92;100.00
6829;BME280;17930;48.592;8.868;2023-07-13T06:50:21;96912.88;;;24.27;100.00
6829;BME280;17930;48.592;8.868;2023-07-13T06:52:47;96922.47;;;24.31;100.00
6829;BME280;17930;48.592;8.868;2023-07-13T06:55:14;96928.16;;;24.30;100.00
6829;BME280;17930;48.592;8.868;2023-07-13T06:57:41;96937.59;;;23.33;100.00
6829;BME280;17930;48.592;8.868;2023-07-13T07:00:08;96933.50;;;23.55;100.00
6829;BME280;17930;48.592;8.868;2023-07-13T07:02:36;96932.53;;;24.19;100.00
6829;BME280;17930;48.592;8.868;2023-07-13T07:05:04;96932.16;;;24.84;99.64
6829;BME280;17930;48.592;8.868;2023-07-13T07:07:30;96932.88;;;25.29;98.48
6829;BME280;17930;48.592;8.868;2023-07-13T07:09:57;96932.97;;;25.36;92.95
6829;BME280;17930;48.592;8.868;2023-07-13T07:12:24;96925.94;;;25.80;90.26
6829;BME280;17930;48.592;8.868;2023-07-13T07:14:51;96924.81;;;25.55;86.11
6829;BME280;17930;48.592;8.868;2023-07-13T07:17:17;96929.88;;;25.34;87.28
6829;BME280;17930;48.592;8.868;2023-07-13T07:19:45;96928.69;;;25.06;86.06
6829;BME280;17930;48.592;8.868;2023-07-13T07:22:12;96927.75;;;25.46;86.61
6829;BME280;17930;48.592;8.868;2023-07-13T07:24:38;96929.94;;;25.37;84.08
6829;BME280;17930;48.592;8.868;2023-07-13T07:27:05;96911.09;;;26.18;79.82
6829;BME280;17930;48.592;8.868;2023-07-13T07:29:32;96927.09;;;25.53;81.53
6829;BME280;17930;48.592;8.868;2023-07-13T07:31:59;96906.41;;;26.44;81.13
6829;BME280;17930;48.592;8.868;2023-07-13T07:34:26;96906.59;;;27.12;76.84
6829;BME280;17930;48.592;8.868;2023-07-13T07:36:54;96905.44;;;27.84;72.13
6829;BME280;17930;48.592;8.868;2023-07-13T07:39:21;96919.25;;;27.79;68.65
6829;BME280;17930;48.592;8.868;2023-07-13T07:41:48;96911.00;;;28.39;68.98
6829;BME280;17930;48.592;8.868;2023-07-13T07:44:14;96908.72;;;28.55;65.73
6829;BME280;17930;48.592;8.868;2023-07-13T07:46:41;96919.00;;;26.44;66.43
6829;BME280;17930;48.592;8.868;2023-07-13T07:49:08;96910.16;;;26.80;67.95
6829;BME280;17930;48.592;8.868;2023-07-13T07:51:35;96916.81;;;26.92;66.45
6829;BME280;17930;48.592;8.868;2023-07-13T07:54:03;96924.63;;;25.41;69.33
6829;BME280;17930;48.592;8.868;2023-07-13T07:56:30;96920.84;;;26.33;68.33
6829;BME280;17930;48.592;8.868;2023-07-13T07:58:57;96922.13;;;27.49;65.85
6829;BME280;17930;48.592;8.868;2023-07-13T08:01:23;96918.63;;;28.23;62.31
6829;BME280;17930;48.592;8.868;2023-07-13T08:03:50;96917.16;;;28.64;60.64
6829;BME280;17930;48.592;8.868;2023-07-13T08:06:17;96912.56;;;29.37;60.27
6829;BME280;17930;48.592;8.868;2023-07-13T08:08:45;96922.13;;;28.44;58.83
6829;BME280;17930;48.592;8.868;2023-07-13T08:11:13;96923.88;;;27.21;60.39
6829;BME280;17930;48.592;8.868;2023-07-13T08:13:39;96935.75;;;25.72;63.15
6829;BME280;17930;48.592;8.868;2023-07-13T08:16:06;96930.97;;;25.55;64.58
6829;BME280;17930;48.592;8.868;2023-07-13T08:18:33;96924.50;;;27.58;63.86
6829;BME280;17930;48.592;8.868;2023-07-13T08:21:03;96909.38;;;29.70;57.81
6829;BME280;17930;48.592;8.868;2023-07-13T08:23:30;96920.25;;;29.11;54.25
6829;BME280;17930;48.592;8.868;2023-07-13T08:25:57;96914.47;;;28.57;58.35
6829;BME280;17930;48.592;8.868;2023-07-13T08:28:28;96909.88;;;29.20;54.28
6829;BME280;17930;48.592;8.868;2023-07-13T08:30:55;96909.47;;;29.46;53.07
6829;BME280;17930;48.592;8.868;2023-07-13T08:33:22;96905.44;;;30.02;52.02
6829;BME280;17930;48.592;8.868;2023-07-13T08:35:50;96901.63;;;31.07;50.73
6829;BME280;17930;48.592;8.868;2023-07-13T08:38:17;96901.44;;;30.27;50.50
6829;BME280;17930;48.592;8.868;2023-07-13T08:40:50;96918.44;;;27.68;54.54
6829;BME280;17930;48.592;8.868;2023-07-13T08:43:20;96909.06;;;28.36;55.83
6829;BME280;17930;48.592;8.868;2023-07-13T08:45:53;96924.59;;;27.72;56.39
6829;BME280;17930;48.592;8.868;2023-07-13T08:48:24;96922.28;;;27.70;56.43
6829;BME280;17930;48.592;8.868;2023-07-13T08:50:57;96915.72;;;27.61;55.10
6829;BME280;17930;48.592;8.868;2023-07-13T08:53:32;96911.56;;;26.63;56.79
6829;BME280;17930;48.592;8.868;2023-07-13T08:56:02;96915.50;;;28.07;56.65
6829;BME280;17930;48.592;8.868;2023-07-13T08:58:30;96919.63;;;27.77;57.61
6829;BME280;17930;48.592;8.868;2023-07-13T09:01:14;96921.63;;;28.04;57.05
6829;BME280;17930;48.592;8.868;2023-07-13T09:03:48;96922.34;;;26.74;56.84
6829;BME280;17930;48.592;8.868;2023-07-13T09:06:20;96918.38;;;28.80;55.52
6829;BME280;17930;48.592;8.868;2023-07-13T09:08:55;96918.94;;;28.04;54.89
6829;BME280;17930;48.592;8.868;2023-07-13T09:11:36;96912.44;;;28.05;56.34
6829;BME280;17930;48.592;8.868;2023-07-13T09:14:22;96907.97;;;29.06;54.25
6829;BME280;17930;48.592;8.868;2023-07-13T09:16:54;96907.09;;;29.68;56.34
6829;BME280;17930;48.592;8.868;2023-07-13T09:19:26;96910.59;;;30.44;53.71
6829;BME280;17930;48.592;8.868;2023-07-13T09:21:55;96913.34;;;30.33;50.60
6829;BME280;17930;48.592;8.868;2023-07-13T09:24:31;96897.38;;;32.13;50.66
6829;BME280;17930;48.592;8.868;2023-07-13T09:27:05;96894.91;;;32.78;48.68
6829;BME280;17930;48.592;8.868;2023-07-13T09:29:36;96892.28;;;32.97;46.32
6829;BME280;17930;48.592;8.868;2023-07-13T09:32:12;96894.59;;;32.99;45.65
6829;BME280;17930;48.592;8.868;2023-07-13T09:34:41;96902.28;;;31.92;47.23
6829;BME280;17930;48.592;8.868;2023-07-13T09:37:07;96898.72;;;30.88;47.38
6829;BME280;17930;48.592;8.868;2023-07-13T09:39:36;96894.47;;;30.40;49.31
6829;BME280;17930;48.592;8.868;2023-07-13T09:42:15;96904.09;;;29.46;48.88
6829;BME280;17930;48.592;8.868;2023-07-13T09:44:51;96901.84;;;28.85;50.47
6829;BME280;17930;48.592;8.868;2023-07-13T09:47:22;96902.13;;;29.53;49.70
6829;BME280;17930;48.592;8.868;2023-07-13T09:49:54;96895.09;;;30.58;47.96
6829;BME280;17930;48.592;8.868;2023-07-13T09:52:21;96899.31;;;31.09;47.40
6829;BME280;17930;48.592;8.868;2023-07-13T09:54:50;96898.53;;;31.09;47.96
6829;BME280;17930;48.592;8.868;2023-07-13T09:57:19;96895.03;;;31.52;47.73
6829;BME280;17930;48.592;8.868;2023-07-13T09:59:47;96899.97;;;30.77;46.99
6829;BME280;17930;48.592;8.868;2023-07-13T10:02:27;96901.00;;;29.54;48.32
6829;BME280;17930;48.592;8.868;2023-07-13T10:04:56;96900.84;;;29.96;47.63
6829;BME280;17930;48.592;8.868;2023-07-13T10:07:23;96889.47;;;30.93;47.46
6829;BME280;17930;48.592;8.868;2023-07-13T10:09:52;96887.81;;;31.42;46.58
6829;BME280;17930;48.592;8.868;2023-07-13T10:12:19;96893.88;;;30.05;47.08
6829;BME280;17930;48.592;8.868;2023-07-13T10:14:51;96904.53;;;30.22;48.17
6829;BME280;17930;48.592;8.868;2023-07-13T10:17:19;96896.59;;;30.66;47.82
6829;BME280;17930;48.592;8.868;2023-07-13T10:19:53;96896.13;;;30.13;48.18
6829;BME280;17930;48.592;8.868;2023-07-13T10:22:25;96893.16;;;29.98;48.24
6829;BME280;17930;48.592;8.868;2023-07-13T10:24:54;96899.88;;;29.31;49.52
6829;BME280;17930;48.592;8.868;2023-07-13T10:27:27;96908.66;;;28.20;49.41
6829;BME280;17930;48.592;8.868;2023-07-13T10:30:04;96913.16;;;27.89;50.48
6829;BME280;17930;48.592;8.868;2023-07-13T10:32:35;96909.19;;;27.55;50.01
6829;BME280;17930;48.592;8.868;2023-07-13T10:35:05;96909.84;;;27.45;50.54
6829;BME280;17930;48.592;8.868;2023-07-13T10:37:39;96905.63;;;28.46;48.66
6829;BME280;17930;48.592;8.868;2023-07-13T10:40:13;96901.00;;;28.29;49.50
6829;BME280;17930;48.592;8.868;2023-07-13T10:42:44;96894.16;;;29.11;50.10
6829;BME280;17930;48.592;8.868;2023-07-13T10:45:14;96894.97;;;31.19;46.13
6829;BME280;17930;48.592;8.868;2023-07-13T10:47:42;96896.84;;;31.25;44.51
6829;BME280;17930;48.592;8.868;2023-07-13T10:50:17;96897.88;;;30.98;44.87
6829;BME280;17930;48.592;8.868;2023-07-13T10:52:47;96893.13;;;31.82;41.49
6829;BME280;17930;48.592;8.868;2023-07-13T10:55:35;96877.81;;;33.26;40.62
6829;BME280;17930;48.592;8.868;2023-07-13T10:58:14;96876.13;;;33.74;39.50
6829;BME280;17930;48.592;8.868;2023-07-13T11:00:47;96887.47;;;33.50;39.78
6829;BME280;17930;48.592;8.868;2023-07-13T11:03:18;96874.81;;;32.26;42.16
6829;BME280;17930;48.592;8.868;2023-07-13T11:05:51;96882.06;;;32.07;40.34
6829;BME280;17930;48.592;8.868;2023-07-13T11:08:35;96878.22;;;32.30;39.88
6829;BME280;17930;48.592;8.868;2023-07-13T11:11:34;96879.84;;;31.98;41.55
6829;BME280;17930;48.592;8.868;2023-07-13T11:14:02;96873.78;;;29.28;43.65
6829;BME280;17930;48.592;8.868;2023-07-13T11:16:44;96887.25;;;28.55;44.73
6829;BME280;17930;48.592;8.868;2023-07-13T11:19:27;96874.16;;;29.33;45.08
6829;BME280;17930;48.592;8.868;2023-07-13T11:22:21;96870.38;;;31.13;41.67
6829;BME280;17930;48.592;8.868;2023-07-13T11:24:51;96879.22;;;30.70;40.89
6829;BME280;17930;48.592;8.868;2023-07-13T11:27:30;96877.00;;;29.98;42.17
6829;BME280;17930;48.592;8.868;2023-07-13T11:30:21;96867.72;;;31.80;42.21
6829;BME280;17930;48.592;8.868;2023-07-13T11:35:43;96859.34;;;32.53;38.76
6829;BME280;17930;48.592;8.868;2023-07-13T11:38:16;96860.84;;;33.45;39.10
6829;BME280;17930;48.592;8.868;2023-07-13T11:40:46;96860.59;;;32.71;39.27
6829;BME280;17930;48.592;8.868;2023-07-13T11:43:15;96843.72;;;34.73;38.83
6829;BME280;17930;48.592;8.868;2023-07-13T11:45:43;96850.00;;;34.38;38.63
6829;BME280;17930;48.592;8.868;2023-07-13T11:48:21;96844.78;;;32.21;41.21
6829;BME280;17930;48.592;8.868;2023-07-13T11:50:52;96853.31;;;30.36;43.43
6829;BME280;17930;48.592;8.868;2023-07-13T11:53:24;96853.63;;;32.74;42.52
6829;BME280;17930;48.592;8.868;2023-07-13T11:55:52;96861.16;;;33.09;38.16
6829;BME280;17930;48.592;8.868;2023-07-13T11:58:23;96857.66;;;34.75;38.15
6829;BME280;17930;48.592;8.868;2023-07-13T12:00:51;96865.03;;;31.47;40.18
6829;BME280;17930;48.592;8.868;2023-07-13T12:03:23;96865.28;;;30.25;42.32
6829;BME280;17930;48.592;8.868;2023-07-13T12:06:02;96866.44;;;31.58;41.52
6829;BME280;17930;48.592;8.868;2023-07-13T12:08:38;96865.13;;;32.03;41.24
6829;BME280;17930;48.592;8.868;2023-07-13T12:11:15;96861.09;;;33.12;40.90
6829;BME280;17930;48.592;8.868;2023-07-13T12:13:43;96870.09;;;32.83;38.28
6829;BME280;17930;48.592;8.868;2023-07-13T12:16:13;96852.81;;;30.48;41.73
6829;BME280;17930;48.592;8.868;2023-07-13T12:18:42;96861.25;;;29.96;43.63
6829;BME280;17930;48.592;8.868;2023-07-13T12:21:13;96866.53;;;28.87;43.17
6829;BME280;17930;48.592;8.868;2023-07-13T12:23:43;96861.16;;;28.45;45.54
6829;BME280;17930;48.592;8.868;2023-07-13T12:26:11;96857.84;;;30.97;42.01
6829;BME280;17930;48.592;8.868;2023-07-13T12:28:45;96869.53;;;32.19;40.39
6829;BME280;17930;48.592;8.868;2023-07-13T12:31:30;96866.09;;;32.15;39.57
6829;BME280;17930;48.592;8.868;2023-07-13T12:34:03;96845.03;;;32.79;40.30
6829;BME280;17930;48.592;8.868;2023-07-13T12:36:32;96855.28;;;34.10;38.29
6829;BME280;17930;48.592;8.868;2023-07-13T12:39:04;96863.38;;;32.42;38.58
6829;BME280;17930;48.592;8.868;2023-07-13T12:41:36;96870.78;;;33.32;37.67
6829;BME280;17930;48.592;8.868;2023-07-13T12:44:03;96859.16;;;31.85;39.50
6829;BME280;17930;48.592;8.868;2023-07-13T12:46:31;96855.75;;;32.63;38.78
6829;BME280;17930;48.592;8.868;2023-07-13T12:48:57;96856.78;;;32.92;38.93
6829;BME280;17930;48.592;8.868;2023-07-13T12:51:26;96853.31;;;32.19;39.83
6829;BME280;17930;48.592;8.868;2023-07-13T12:53:57;96865.25;;;32.94;38.74
6829;BME280;17930;48.592;8.868;2023-07-13T12:56:27;96852.47;;;32.98;38.86
6829;BME280;17930;48.592;8.868;2023-07-13T12:58:58;96859.50;;;33.15;38.64
6829;BME280;17930;48.592;8.868;2023-07-13T13:01:28;96846.75;;;33.73;37.96
6829;BME280;17930;48.592;8.868;2023-07-13T13:03:55;96851.50;;;32.85;38.43
6829;BME280;17930;48.592;8.868;2023-07-13T13:06:24;96848.69;;;31.57;40.20
6829;BME280;17930;48.592;8.868;2023-07-13T13:08:53;96854.56;;;32.12;40.45
6829;BME280;17930;48.592;8.868;2023-07-13T13:11:22;96853.69;;;33.35;37.21
6829;BME280;17930;48.592;8.868;2023-07-13T13:13:51;96858.28;;;32.96;38.13
6829;BME280;17930;48.592;8.868;2023-07-13T13:16:22;96852.50;;;32.22;38.24
6829;BME280;17930;48.592;8.868;2023-07-13T13:18:51;96846.41;;;33.32;38.59